sensor_id;sensor_type;location;lat;lon;timestamp;P1;durP1;ratioP1;P2;durP2;ratioP2
4636;SDS011;2331;48.806;9.140;2023-05-29T00:02:24;8.30;;;4.53;;
4636;SDS011;2331;48.806;9.140;2023-05-29T00:04:51;7.28;;;4.38;;
4636;SDS011;2331;48.806;9.140;2023-05-29T00:07:18;9.70;;;4.63;;
4636;SDS011;2331;48.806;9.140;2023-05-29T00:09:44;7.75;;;4.40;;
4636;SDS011;2331;48.806;9.140;2023-05-29T00:12:12;7.80;;;4.40;;
4636;SDS011;2331;48.806;9.140;2023-05-29T00:14:40;7.80;;;4.35;;
4636;SDS011;2331;48.806;9.140;2023-05-29T00:17:06;7.68;;;3.72;;
4636;SDS011;2331;48.806;9.140;2023-05-29T00:19:34;8.00;;;4.47;;
4636;SDS011;2331;48.806;9.140;2023-05-29T00:22:01;6.53;;;4.10;;
4636;SDS011;2331;48.806;9.140;2023-05-29T00:24:28;10.77;;;4.18;;
4636;SDS011;2331;48.806;9.140;2023-05-29T00:26:55;6.57;;;3.78;;
4636;SDS011;2331;48.806;9.140;2023-05-29T00:29:22;6.72;;;4.30;;
4636;SDS011;2331;48.806;9.140;2023-05-29T00:31:50;8.25;;;4.43;;
4636;SDS011;2331;48.806;9.140;2023-05-29T00:34:18;9.18;;;3.90;;
4636;SDS011;2331;48.806;9.140;2023-05-29T00:36:45;5.80;;;3.60;;
4636;SDS011;2331;48.806;9.140;2023-05-29T00:39:12;8.20;;;4.65;;
4636;SDS011;2331;48.806;9.140;2023-05-29T00:41:39;12.02;;;4.60;;
4636;SDS011;2331;48.806;9.140;2023-05-29T00:44:06;7.80;;;4.15;;
4636;SDS011;2331;48.806;9.140;2023-05-29T00:46:34;6.80;;;4.10;;
4636;SDS011;2331;48.806;9.140;2023-05-29T00:49:01;8.07;;;4.45;;
4636;SDS011;2331;48.806;9.140;2023-05-29T00:51:29;6.88;;;4.18;;
4636;SDS011;2331;48.806;9.140;2023-05-29T00:53:57;6.20;;;3.75;;
4636;SDS011;2331;48.806;9.140;2023-05-29T00:56:25;7.75;;;4.13;;
4636;SDS011;2331;48.806;9.140;2023-05-29T00:58:52;12.65;;;4.20;;
4636;SDS011;2331;48.806;9.140;2023-05-29T01:01:19;8.70;;;4.63;;
4636;SDS011;2331;48.806;9.140;2023-05-29T01:03:49;11.52;;;5.53;;
4636;SDS011;2331;48.806;9.140;2023-05-29T01:06:19;9.23;;;4.97;;
4636;SDS011;2331;48.806;9.140;2023-05-29T01:08:45;7.75;;;4.53;;
4636;SDS011;2331;48.806;9.140;2023-05-29T01:11:12;9.52;;;4.80;;
4636;SDS011;2331;48.806;9.140;2023-05-29T01:13:48;9.90;;;4.90;;
4636;SDS011;2331;48.806;9.140;2023-05-29T01:16:18;8.68;;;4.60;;
4636;SDS011;2331;48.806;9.140;2023-05-29T01:18:54;9.45;;;4.72;;
4636;SDS011;2331;48.806;9.140;2023-05-29T01:21:26;8.88;;;4.45;;
4636;SDS011;2331;48.806;9.140;2023-05-29T01:24:14;8.10;;;4.35;;
4636;SDS011;2331;48.806;9.140;2023-05-29T01:26:53;6.90;;;4.00;;
4636;SDS011;2331;48.806;9.140;2023-05-29T01:29:24;10.15;;;4.55;;
4636;SDS011;2331;48.806;9.140;2023-05-29T01:31:53;6.53;;;4.35;;
4636;SDS011;2331;48.806;9.140;2023-05-29T01:34:21;8.75;;;4.65;;
4636;SDS011;2331;48.806;9.140;2023-05-29T01:36:48;6.82;;;4.18;;
4636;SDS011;2331;48.806;9.140;2023-05-29T01:39:15;7.40;;;4.80;;
4636;SDS011;2331;48.806;9.140;2023-05-29T01:41:44;7.57;;;4.40;;
4636;SDS011;2331;48.806;9.140;2023-05-29T01:44:13;8.60;;;4.30;;
4636;SDS011;2331;48.806;9.140;2023-05-29T01:46:41;9.05;;;4.55;;
4636;SDS011;2331;48.806;9.140;2023-05-29T01:49:09;8.80;;;4.10;;
4636;SDS011;2331;48.806;9.140;2023-05-29T01:51:37;9.75;;;4.00;;
4636;SDS011;2331;48.806;9.140;2023-05-29T01:54:05;7.70;;;4.90;;
4636;SDS011;2331;48.806;9.140;2023-05-29T01:56:33;8.30;;;4.30;;
4636;SDS011;2331;48.806;9.140;2023-05-29T01:59:00;9.05;;;4.72;;
4636;SDS011;2331;48.806;9.140;2023-05-29T02:01:30;9.10;;;4.57;;
4636;SDS011;2331;48.806;9.140;2023-05-29T02:03:57;11.70;;;5.00;;
4636;SDS011;2331;48.806;9.140;2023-05-29T02:06:24;7.43;;;4.72;;
4636;SDS011;2331;48.806;9.140;2023-05-29T02:08:50;9.00;;;4.10;;
4636;SDS011;2331;48.806;9.140;2023-05-29T02:11:17;9.98;;;4.53;;
4636;SDS011;2331;48.806;9.140;2023-05-29T02:13:45;7.22;;;4.63;;
4636;SDS011;2331;48.806;9.140;2023-05-29T02:16:11;10.57;;;5.32;;
4636;SDS011;2331;48.806;9.140;2023-05-29T02:18:39;7.03;;;4.55;;
4636;SDS011;2331;48.806;9.140;2023-05-29T02:21:08;7.57;;;4.60;;
4636;SDS011;2331;48.806;9.140;2023-05-29T02:23:34;8.13;;;4.50;;
4636;SDS011;2331;48.806;9.140;2023-05-29T02:26:01;8.30;;;4.03;;
4636;SDS011;2331;48.806;9.140;2023-05-29T02:28:28;8.23;;;4.40;;
4636;SDS011;2331;48.806;9.140;2023-05-29T02:30:54;9.15;;;4.80;;
4636;SDS011;2331;48.806;9.140;2023-05-29T02:33:21;7.20;;;4.40;;
4636;SDS011;2331;48.806;9.140;2023-05-29T02:35:49;9.00;;;4.53;;
4636;SDS011;2331;48.806;9.140;2023-05-29T02:38:16;8.73;;;4.70;;
4636;SDS011;2331;48.806;9.140;2023-05-29T02:40:43;7.15;;;3.97;;
4636;SDS011;2331;48.806;9.140;2023-05-29T02:43:12;6.28;;;4.45;;
4636;SDS011;2331;48.806;9.140;2023-05-29T02:45:39;7.65;;;4.70;;
4636;SDS011;2331;48.806;9.140;2023-05-29T02:48:05;9.65;;;4.38;;
4636;SDS011;2331;48.806;9.140;2023-05-29T02:50:32;10.00;;;4.70;;
4636;SDS011;2331;48.806;9.140;2023-05-29T02:53:00;8.32;;;4.70;;
4636;SDS011;2331;48.806;9.140;2023-05-29T02:55:27;11.30;;;4.28;;
4636;SDS011;2331;48.806;9.140;2023-05-29T02:57:54;9.25;;;4.55;;
4636;SDS011;2331;48.806;9.140;2023-05-29T03:00:21;10.20;;;4.70;;
4636;SDS011;2331;48.806;9.140;2023-05-29T03:02:47;6.47;;;4.40;;
4636;SDS011;2331;48.806;9.140;2023-05-29T03:05:14;9.68;;;4.63;;
4636;SDS011;2331;48.806;9.140;2023-05-29T03:07:41;5.57;;;3.78;;
4636;SDS011;2331;48.806;9.140;2023-05-29T03:10:10;8.90;;;4.90;;
4636;SDS011;2331;48.806;9.140;2023-05-29T03:12:37;7.35;;;4.82;;
4636;SDS011;2331;48.806;9.140;2023-05-29T03:15:06;6.20;;;4.20;;
4636;SDS011;2331;48.806;9.140;2023-05-29T03:17:33;7.80;;;4.28;;
4636;SDS011;2331;48.806;9.140;2023-05-29T03:20:01;7.25;;;4.10;;
4636;SDS011;2331;48.806;9.140;2023-05-29T03:22:31;8.20;;;4.75;;
4636;SDS011;2331;48.806;9.140;2023-05-29T03:24:57;6.53;;;4.10;;
4636;SDS011;2331;48.806;9.140;2023-05-29T03:27:25;7.55;;;4.35;;
4636;SDS011;2331;48.806;9.140;2023-05-29T03:29:52;11.68;;;4.28;;
4636;SDS011;2331;48.806;9.140;2023-05-29T03:32:19;7.22;;;4.50;;
4636;SDS011;2331;48.806;9.140;2023-05-29T03:34:46;7.60;;;4.57;;
4636;SDS011;2331;48.806;9.140;2023-05-29T03:37:13;8.13;;;4.35;;
4636;SDS011;2331;48.806;9.140;2023-05-29T03:39:40;7.13;;;4.63;;
4636;SDS011;2331;48.806;9.140;2023-05-29T03:42:06;8.30;;;4.40;;
4636;SDS011;2331;48.806;9.140;2023-05-29T03:44:35;6.70;;;4.05;;
4636;SDS011;2331;48.806;9.140;2023-05-29T03:47:01;6.82;;;4.10;;
4636;SDS011;2331;48.806;9.140;2023-05-29T03:49:28;6.47;;;4.20;;
4636;SDS011;2331;48.806;9.140;2023-05-29T03:51:55;8.70;;;4.22;;
4636;SDS011;2331;48.806;9.140;2023-05-29T03:54:21;7.15;;;4.35;;
4636;SDS011;2331;48.806;9.140;2023-05-29T03:56:48;6.47;;;4.65;;
4636;SDS011;2331;48.806;9.140;2023-05-29T03:59:14;9.13;;;4.53;;
4636;SDS011;2331;48.806;9.140;2023-05-29T04:01:43;7.80;;;4.70;;
4636;SDS011;2331;48.806;9.140;2023-05-29T04:04:09;8.45;;;4.05;;
4636;SDS011;2331;48.806;9.140;2023-05-29T04:06:36;7.55;;;4.10;;
4636;SDS011;2331;48.806;9.140;2023-05-29T04:09:03;8.88;;;4.65;;
4636;SDS011;2331;48.806;9.140;2023-05-29T04:11:31;6.43;;;4.10;;
4636;SDS011;2331;48.806;9.140;2023-05-29T04:13:59;8.60;;;4.57;;
4636;SDS011;2331;48.806;9.140;2023-05-29T04:16:26;6.38;;;3.75;;
4636;SDS011;2331;48.806;9.140;2023-05-29T04:18:54;6.80;;;3.67;;
4636;SDS011;2331;48.806;9.140;2023-05-29T04:21:21;6.68;;;4.30;;
4636;SDS011;2331;48.806;9.140;2023-05-29T04:23:48;20.23;;;4.82;;
4636;SDS011;2331;48.806;9.140;2023-05-29T04:26:15;7.63;;;4.50;;
4636;SDS011;2331;48.806;9.140;2023-05-29T04:28:41;6.75;;;3.70;;
4636;SDS011;2331;48.806;9.140;2023-05-29T04:31:08;7.28;;;4.45;;
4636;SDS011;2331;48.806;9.140;2023-05-29T04:33:39;8.15;;;4.10;;
4636;SDS011;2331;48.806;9.140;2023-05-29T04:36:07;8.23;;;4.57;;
4636;SDS011;2331;48.806;9.140;2023-05-29T04:38:36;7.10;;;4.38;;
4636;SDS011;2331;48.806;9.140;2023-05-29T04:41:02;8.60;;;4.43;;
4636;SDS011;2331;48.806;9.140;2023-05-29T04:43:29;6.43;;;4.03;;
4636;SDS011;2331;48.806;9.140;2023-05-29T04:45:56;8.48;;;4.70;;
4636;SDS011;2331;48.806;9.140;2023-05-29T04:48:23;12.15;;;4.80;;
4636;SDS011;2331;48.806;9.140;2023-05-29T04:50:50;10.73;;;4.28;;
4636;SDS011;2331;48.806;9.140;2023-05-29T04:53:18;8.75;;;4.38;;
4636;SDS011;2331;48.806;9.140;2023-05-29T04:55:45;7.63;;;4.72;;
4636;SDS011;2331;48.806;9.140;2023-05-29T04:58:12;7.03;;;3.88;;
4636;SDS011;2331;48.806;9.140;2023-05-29T05:00:38;9.30;;;5.07;;
4636;SDS011;2331;48.806;9.140;2023-05-29T05:03:05;9.95;;;4.93;;
4636;SDS011;2331;48.806;9.140;2023-05-29T05:05:32;8.15;;;4.60;;
4636;SDS011;2331;48.806;9.140;2023-05-29T05:07:59;7.97;;;4.57;;
4636;SDS011;2331;48.806;9.140;2023-05-29T05:10:27;7.95;;;4.78;;
4636;SDS011;2331;48.806;9.140;2023-05-29T05:12:53;9.40;;;4.90;;
4636;SDS011;2331;48.806;9.140;2023-05-29T05:15:20;9.35;;;4.95;;
4636;SDS011;2331;48.806;9.140;2023-05-29T05:17:47;9.30;;;5.05;;
4636;SDS011;2331;48.806;9.140;2023-05-29T05:20:13;7.15;;;4.22;;
4636;SDS011;2331;48.806;9.140;2023-05-29T05:22:40;6.70;;;4.40;;
4636;SDS011;2331;48.806;9.140;2023-05-29T05:25:07;9.88;;;4.20;;
4636;SDS011;2331;48.806;9.140;2023-05-29T05:27:35;7.32;;;4.28;;
4636;SDS011;2331;48.806;9.140;2023-05-29T05:30:02;6.72;;;3.90;;
4636;SDS011;2331;48.806;9.140;2023-05-29T05:32:29;11.25;;;4.00;;
4636;SDS011;2331;48.806;9.140;2023-05-29T05:34:55;8.57;;;4.70;;
4636;SDS011;2331;48.806;9.140;2023-05-29T05:37:22;9.50;;;4.55;;
4636;SDS011;2331;48.806;9.140;2023-05-29T05:39:49;9.50;;;4.80;;
4636;SDS011;2331;48.806;9.140;2023-05-29T05:42:18;8.38;;;4.60;;
4636;SDS011;2331;48.806;9.140;2023-05-29T05:44:46;6.30;;;4.30;;
4636;SDS011;2331;48.806;9.140;2023-05-29T05:47:13;6.93;;;4.07;;
4636;SDS011;2331;48.806;9.140;2023-05-29T05:49:39;6.75;;;4.43;;
4636;SDS011;2331;48.806;9.140;2023-05-29T05:52:06;10.57;;;4.90;;
4636;SDS011;2331;48.806;9.140;2023-05-29T05:54:33;10.35;;;4.50;;
4636;SDS011;2331;48.806;9.140;2023-05-29T05:57:00;7.80;;;4.35;;
4636;SDS011;2331;48.806;9.140;2023-05-29T05:59:28;7.55;;;4.22;;
4636;SDS011;2331;48.806;9.140;2023-05-29T06:01:56;11.35;;;4.55;;
4636;SDS011;2331;48.806;9.140;2023-05-29T06:04:23;8.68;;;4.35;;
4636;SDS011;2331;48.806;9.140;2023-05-29T06:06:50;8.40;;;3.85;;
4636;SDS011;2331;48.806;9.140;2023-05-29T06:09:16;14.32;;;4.38;;
4636;SDS011;2331;48.806;9.140;2023-05-29T06:11:44;13.60;;;5.18;;
4636;SDS011;2331;48.806;9.140;2023-05-29T06:14:10;9.32;;;4.47;;
4636;SDS011;2331;48.806;9.140;2023-05-29T06:16:37;7.97;;;4.47;;
4636;SDS011;2331;48.806;9.140;2023-05-29T06:19:05;10.35;;;4.18;;
4636;SDS011;2331;48.806;9.140;2023-05-29T06:21:32;11.05;;;4.43;;
4636;SDS011;2331;48.806;9.140;2023-05-29T06:23:58;7.22;;;4.05;;
4636;SDS011;2331;48.806;9.140;2023-05-29T06:26:25;8.18;;;4.63;;
4636;SDS011;2331;48.806;9.140;2023-05-29T06:28:53;8.65;;;4.90;;
4636;SDS011;2331;48.806;9.140;2023-05-29T06:31:20;8.88;;;4.78;;
4636;SDS011;2331;48.806;9.140;2023-05-29T06:33:46;7.85;;;4.40;;
4636;SDS011;2331;48.806;9.140;2023-05-29T06:36:14;12.27;;;5.05;;
4636;SDS011;2331;48.806;9.140;2023-05-29T06:38:45;10.27;;;4.20;;
4636;SDS011;2331;48.806;9.140;2023-05-29T06:41:13;13.13;;;5.57;;
4636;SDS011;2331;48.806;9.140;2023-05-29T06:43:39;8.00;;;4.50;;
4636;SDS011;2331;48.806;9.140;2023-05-29T06:46:06;11.80;;;5.40;;
4636;SDS011;2331;48.806;9.140;2023-05-29T06:48:33;10.13;;;4.90;;
4636;SDS011;2331;48.806;9.140;2023-05-29T06:51:00;10.68;;;4.60;;
4636;SDS011;2331;48.806;9.140;2023-05-29T06:53:28;7.57;;;5.00;;
4636;SDS011;2331;48.806;9.140;2023-05-29T06:55:54;9.38;;;4.28;;
4636;SDS011;2331;48.806;9.140;2023-05-29T06:58:21;6.80;;;4.03;;
4636;SDS011;2331;48.806;9.140;2023-05-29T07:00:48;7.25;;;4.85;;
4636;SDS011;2331;48.806;9.140;2023-05-29T07:03:14;6.25;;;4.30;;
4636;SDS011;2331;48.806;9.140;2023-05-29T07:05:41;7.35;;;4.00;;
4636;SDS011;2331;48.806;9.140;2023-05-29T07:08:08;7.22;;;4.30;;
4636;SDS011;2331;48.806;9.140;2023-05-29T07:10:36;9.85;;;4.28;;
4636;SDS011;2331;48.806;9.140;2023-05-29T07:13:02;7.22;;;3.72;;
4636;SDS011;2331;48.806;9.140;2023-05-29T07:15:31;8.98;;;4.13;;
4636;SDS011;2331;48.806;9.140;2023-05-29T07:17:58;8.23;;;4.65;;
4636;SDS011;2331;48.806;9.140;2023-05-29T07:20:24;7.63;;;4.07;;
4636;SDS011;2331;48.806;9.140;2023-05-29T07:22:51;7.75;;;4.35;;
4636;SDS011;2331;48.806;9.140;2023-05-29T07:25:18;7.78;;;4.43;;
4636;SDS011;2331;48.806;9.140;2023-05-29T07:27:46;10.18;;;4.60;;
4636;SDS011;2331;48.806;9.140;2023-05-29T07:30:13;8.77;;;4.40;;
4636;SDS011;2331;48.806;9.140;2023-05-29T07:32:40;6.97;;;3.97;;
4636;SDS011;2331;48.806;9.140;2023-05-29T07:35:07;7.30;;;4.00;;
4636;SDS011;2331;48.806;9.140;2023-05-29T07:37:33;7.90;;;4.20;;
4636;SDS011;2331;48.806;9.140;2023-05-29T07:40:01;6.85;;;4.20;;
4636;SDS011;2331;48.806;9.140;2023-05-29T07:42:29;13.32;;;4.63;;
4636;SDS011;2331;48.806;9.140;2023-05-29T07:44:57;9.57;;;4.30;;
4636;SDS011;2331;48.806;9.140;2023-05-29T07:47:24;7.50;;;3.85;;
4636;SDS011;2331;48.806;9.140;2023-05-29T07:49:50;9.18;;;4.35;;
4636;SDS011;2331;48.806;9.140;2023-05-29T07:52:17;7.07;;;4.22;;
4636;SDS011;2331;48.806;9.140;2023-05-29T07:54:44;7.70;;;4.40;;
4636;SDS011;2331;48.806;9.140;2023-05-29T07:57:11;8.50;;;4.68;;
4636;SDS011;2331;48.806;9.140;2023-05-29T07:59:40;8.18;;;4.32;;
4636;SDS011;2331;48.806;9.140;2023-05-29T08:02:08;7.20;;;4.28;;
4636;SDS011;2331;48.806;9.140;2023-05-29T08:04:35;8.25;;;4.05;;
4636;SDS011;2331;48.806;9.140;2023-05-29T08:07:02;10.52;;;4.88;;
4636;SDS011;2331;48.806;9.140;2023-05-29T08:09:29;9.98;;;4.80;;
4636;SDS011;2331;48.806;9.140;2023-05-29T08:11:56;7.22;;;4.10;;
4636;SDS011;2331;48.806;9.140;2023-05-29T08:14:24;21.88;;;5.13;;
4636;SDS011;2331;48.806;9.140;2023-05-29T08:16:51;10.45;;;4.43;;
4636;SDS011;2331;48.806;9.140;2023-05-29T08:19:19;11.20;;;4.50;;
4636;SDS011;2331;48.806;9.140;2023-05-29T08:21:46;6.77;;;4.00;;
4636;SDS011;2331;48.806;9.140;2023-05-29T08:24:13;8.82;;;4.55;;
4636;SDS011;2331;48.806;9.140;2023-05-29T08:26:39;10.37;;;4.83;;
4636;SDS011;2331;48.806;9.140;2023-05-29T08:29:08;9.67;;;4.80;;
4636;SDS011;2331;48.806;9.140;2023-05-29T08:31:35;9.90;;;4.80;;
4636;SDS011;2331;48.806;9.140;2023-05-29T08:34:02;7.40;;;4.30;;
4636;SDS011;2331;48.806;9.140;2023-05-29T08:36:30;7.77;;;4.37;;
4636;SDS011;2331;48.806;9.140;2023-05-29T08:38:57;8.30;;;4.67;;
4636;SDS011;2331;48.806;9.140;2023-05-29T08:41:25;8.67;;;5.27;;
4636;SDS011;2331;48.806;9.140;2023-05-29T08:43:57;8.70;;;4.30;;
4636;SDS011;2331;48.806;9.140;2023-05-29T08:46:29;8.70;;;4.90;;
4636;SDS011;2331;48.806;9.140;2023-05-29T08:48:56;8.83;;;5.27;;
4636;SDS011;2331;48.806;9.140;2023-05-29T08:51:26;10.10;;;4.75;;
4636;SDS011;2331;48.806;9.140;2023-05-29T08:54:01;8.27;;;4.55;;
4636;SDS011;2331;48.806;9.140;2023-05-29T08:56:29;8.77;;;4.50;;
4636;SDS011;2331;48.806;9.140;2023-05-29T08:58:56;10.33;;;4.87;;
4636;SDS011;2331;48.806;9.140;2023-05-29T09:01:23;9.90;;;5.13;;
4636;SDS011;2331;48.806;9.140;2023-05-29T09:03:51;10.83;;;4.87;;
4636;SDS011;2331;48.806;9.140;2023-05-29T09:06:18;8.87;;;4.70;;
4636;SDS011;2331;48.806;9.140;2023-05-29T09:08:45;7.40;;;4.90;;
4636;SDS011;2331;48.806;9.140;2023-05-29T09:11:14;9.00;;;5.23;;
4636;SDS011;2331;48.806;9.140;2023-05-29T09:13:41;8.00;;;4.50;;
4636;SDS011;2331;48.806;9.140;2023-05-29T09:16:08;9.73;;;5.60;;
4636;SDS011;2331;48.806;9.140;2023-05-29T09:18:35;8.97;;;4.50;;
4636;SDS011;2331;48.806;9.140;2023-05-29T09:21:06;9.50;;;5.30;;
4636;SDS011;2331;48.806;9.140;2023-05-29T09:23:33;9.17;;;5.37;;
4636;SDS011;2331;48.806;9.140;2023-05-29T09:26:02;8.50;;;4.77;;
4636;SDS011;2331;48.806;9.140;2023-05-29T09:28:31;10.40;;;5.20;;
4636;SDS011;2331;48.806;9.140;2023-05-29T09:30:59;10.33;;;5.37;;
4636;SDS011;2331;48.806;9.140;2023-05-29T09:33:26;10.87;;;5.13;;
4636;SDS011;2331;48.806;9.140;2023-05-29T09:35:53;10.47;;;4.50;;
4636;SDS011;2331;48.806;9.140;2023-05-29T09:38:20;8.00;;;4.50;;
4636;SDS011;2331;48.806;9.140;2023-05-29T09:40:46;10.33;;;5.00;;
4636;SDS011;2331;48.806;9.140;2023-05-29T09:43:13;8.17;;;4.87;;
4636;SDS011;2331;48.806;9.140;2023-05-29T09:45:44;8.80;;;5.03;;
4636;SDS011;2331;48.806;9.140;2023-05-29T09:48:12;11.80;;;4.57;;
4636;SDS011;2331;48.806;9.140;2023-05-29T09:50:40;9.47;;;4.63;;
4636;SDS011;2331;48.806;9.140;2023-05-29T09:53:16;9.60;;;4.93;;
4636;SDS011;2331;48.806;9.140;2023-05-29T09:55:45;8.07;;;4.60;;
4636;SDS011;2331;48.806;9.140;2023-05-29T09:58:12;9.47;;;4.33;;
4636;SDS011;2331;48.806;9.140;2023-05-29T10:00:40;8.90;;;4.57;;
4636;SDS011;2331;48.806;9.140;2023-05-29T10:03:09;11.20;;;4.77;;
4636;SDS011;2331;48.806;9.140;2023-05-29T10:05:37;7.83;;;4.10;;
4636;SDS011;2331;48.806;9.140;2023-05-29T10:08:04;10.43;;;5.13;;
4636;SDS011;2331;48.806;9.140;2023-05-29T10:10:34;8.67;;;4.77;;
4636;SDS011;2331;48.806;9.140;2023-05-29T10:13:03;6.17;;;3.77;;
4636;SDS011;2331;48.806;9.140;2023-05-29T10:15:32;10.03;;;4.67;;
4636;SDS011;2331;48.806;9.140;2023-05-29T10:18:02;11.90;;;4.50;;
4636;SDS011;2331;48.806;9.140;2023-05-29T10:20:31;12.80;;;4.60;;
4636;SDS011;2331;48.806;9.140;2023-05-29T10:22:59;13.10;;;4.60;;
4636;SDS011;2331;48.806;9.140;2023-05-29T10:25:28;7.33;;;4.20;;
4636;SDS011;2331;48.806;9.140;2023-05-29T10:27:57;9.90;;;3.87;;
4636;SDS011;2331;48.806;9.140;2023-05-29T10:30:26;6.90;;;4.10;;
4636;SDS011;2331;48.806;9.140;2023-05-29T10:36:01;9.47;;;4.40;;
4636;SDS011;2331;48.806;9.140;2023-05-29T10:38:36;7.73;;;4.33;;
4636;SDS011;2331;48.806;9.140;2023-05-29T10:43:54;8.23;;;4.33;;
4636;SDS011;2331;48.806;9.140;2023-05-29T10:46:25;7.03;;;4.17;;
4636;SDS011;2331;48.806;9.140;2023-05-29T10:49:29;8.43;;;4.00;;
4636;SDS011;2331;48.806;9.140;2023-05-29T10:51:57;10.10;;;4.73;;
4636;SDS011;2331;48.806;9.140;2023-05-29T10:54:25;8.70;;;3.60;;
4636;SDS011;2331;48.806;9.140;2023-05-29T10:56:53;9.47;;;4.50;;
4636;SDS011;2331;48.806;9.140;2023-05-29T10:59:22;8.53;;;3.97;;
4636;SDS011;2331;48.806;9.140;2023-05-29T11:01:52;9.17;;;5.33;;
4636;SDS011;2331;48.806;9.140;2023-05-29T11:04:27;7.77;;;4.37;;
4636;SDS011;2331;48.806;9.140;2023-05-29T11:06:55;7.70;;;4.27;;
4636;SDS011;2331;48.806;9.140;2023-05-29T11:09:26;7.83;;;4.20;;
4636;SDS011;2331;48.806;9.140;2023-05-29T11:12:13;7.00;;;4.13;;
4636;SDS011;2331;48.806;9.140;2023-05-29T11:14:53;8.17;;;4.13;;
4636;SDS011;2331;48.806;9.140;2023-05-29T11:17:31;9.27;;;4.80;;
4636;SDS011;2331;48.806;9.140;2023-05-29T11:20:02;12.00;;;4.20;;
4636;SDS011;2331;48.806;9.140;2023-05-29T11:22:34;9.33;;;4.30;;
4636;SDS011;2331;48.806;9.140;2023-05-29T11:25:22;8.90;;;4.53;;
4636;SDS011;2331;48.806;9.140;2023-05-29T11:27:49;7.63;;;3.80;;
4636;SDS011;2331;48.806;9.140;2023-05-29T11:30:17;7.33;;;3.50;;
4636;SDS011;2331;48.806;9.140;2023-05-29T11:32:44;8.43;;;3.93;;
4636;SDS011;2331;48.806;9.140;2023-05-29T11:35:13;8.57;;;3.90;;
4636;SDS011;2331;48.806;9.140;2023-05-29T11:37:40;8.63;;;3.87;;
4636;SDS011;2331;48.806;9.140;2023-05-29T11:40:11;11.60;;;3.60;;
4636;SDS011;2331;48.806;9.140;2023-05-29T11:42:40;6.73;;;3.80;;
4636;SDS011;2331;48.806;9.140;2023-05-29T11:45:11;7.10;;;4.00;;
4636;SDS011;2331;48.806;9.140;2023-05-29T11:47:53;10.80;;;3.73;;
4636;SDS011;2331;48.806;9.140;2023-05-29T11:50:22;9.30;;;3.90;;
4636;SDS011;2331;48.806;9.140;2023-05-29T11:52:50;9.80;;;3.70;;
4636;SDS011;2331;48.806;9.140;2023-05-29T11:55:18;8.47;;;3.53;;
4636;SDS011;2331;48.806;9.140;2023-05-29T11:57:45;7.67;;;3.83;;
4636;SDS011;2331;48.806;9.140;2023-05-29T12:00:13;6.23;;;3.80;;
4636;SDS011;2331;48.806;9.140;2023-05-29T12:02:40;8.57;;;3.90;;
4636;SDS011;2331;48.806;9.140;2023-05-29T12:05:08;7.57;;;3.43;;
4636;SDS011;2331;48.806;9.140;2023-05-29T12:07:46;8.37;;;4.13;;
4636;SDS011;2331;48.806;9.140;2023-05-29T12:10:14;7.70;;;3.30;;
4636;SDS011;2331;48.806;9.140;2023-05-29T12:12:42;7.47;;;3.80;;
4636;SDS011;2331;48.806;9.140;2023-05-29T12:15:12;12.30;;;3.77;;
4636;SDS011;2331;48.806;9.140;2023-05-29T12:17:40;6.43;;;3.50;;
4636;SDS011;2331;48.806;9.140;2023-05-29T12:20:08;5.83;;;3.40;;
4636;SDS011;2331;48.806;9.140;2023-05-29T12:22:38;8.60;;;3.00;;
4636;SDS011;2331;48.806;9.140;2023-05-29T12:25:08;12.60;;;4.97;;
4636;SDS011;2331;48.806;9.140;2023-05-29T12:27:37;7.13;;;4.00;;
4636;SDS011;2331;48.806;9.140;2023-05-29T12:30:08;6.90;;;3.77;;
4636;SDS011;2331;48.806;9.140;2023-05-29T12:32:35;9.00;;;3.50;;
4636;SDS011;2331;48.806;9.140;2023-05-29T12:35:09;6.40;;;3.50;;
4636;SDS011;2331;48.806;9.140;2023-05-29T12:37:41;7.20;;;3.80;;
4636;SDS011;2331;48.806;9.140;2023-05-29T12:40:11;6.70;;;3.47;;
4636;SDS011;2331;48.806;9.140;2023-05-29T12:42:42;7.47;;;3.40;;
4636;SDS011;2331;48.806;9.140;2023-05-29T12:45:09;6.00;;;3.10;;
4636;SDS011;2331;48.806;9.140;2023-05-29T12:47:36;7.40;;;3.17;;
4636;SDS011;2331;48.806;9.140;2023-05-29T12:50:18;7.57;;;3.67;;
4636;SDS011;2331;48.806;9.140;2023-05-29T12:52:52;8.40;;;3.67;;
4636;SDS011;2331;48.806;9.140;2023-05-29T12:55:21;5.40;;;3.53;;
4636;SDS011;2331;48.806;9.140;2023-05-29T12:57:47;6.90;;;3.30;;
4636;SDS011;2331;48.806;9.140;2023-05-29T13:00:15;7.27;;;3.50;;
4636;SDS011;2331;48.806;9.140;2023-05-29T13:02:43;7.03;;;3.70;;
4636;SDS011;2331;48.806;9.140;2023-05-29T13:05:10;6.40;;;3.60;;
4636;SDS011;2331;48.806;9.140;2023-05-29T13:07:37;5.40;;;3.10;;
4636;SDS011;2331;48.806;9.140;2023-05-29T13:10:04;7.33;;;3.43;;
4636;SDS011;2331;48.806;9.140;2023-05-29T13:12:33;7.20;;;2.87;;
4636;SDS011;2331;48.806;9.140;2023-05-29T13:15:00;6.90;;;3.57;;
4636;SDS011;2331;48.806;9.140;2023-05-29T13:17:27;6.07;;;3.03;;
4636;SDS011;2331;48.806;9.140;2023-05-29T13:19:54;6.97;;;3.87;;
4636;SDS011;2331;48.806;9.140;2023-05-29T13:22:21;6.33;;;3.37;;
4636;SDS011;2331;48.806;9.140;2023-05-29T13:24:47;7.37;;;3.40;;
4636;SDS011;2331;48.806;9.140;2023-05-29T13:27:14;8.33;;;3.00;;
4636;SDS011;2331;48.806;9.140;2023-05-29T13:29:43;5.70;;;3.20;;
4636;SDS011;2331;48.806;9.140;2023-05-29T13:32:09;6.50;;;3.70;;
4636;SDS011;2331;48.806;9.140;2023-05-29T13:34:36;7.93;;;3.37;;
4636;SDS011;2331;48.806;9.140;2023-05-29T13:37:03;5.73;;;3.27;;
4636;SDS011;2331;48.806;9.140;2023-05-29T13:39:30;6.53;;;3.10;;
4636;SDS011;2331;48.806;9.140;2023-05-29T13:41:57;8.33;;;3.70;;
4636;SDS011;2331;48.806;9.140;2023-05-29T13:44:23;11.17;;;3.60;;
4636;SDS011;2331;48.806;9.140;2023-05-29T13:46:51;7.80;;;3.90;;
4636;SDS011;2331;48.806;9.140;2023-05-29T13:49:18;7.43;;;4.13;;
4636;SDS011;2331;48.806;9.140;2023-05-29T13:51:45;9.33;;;3.40;;
4636;SDS011;2331;48.806;9.140;2023-05-29T13:54:15;7.07;;;3.30;;
4636;SDS011;2331;48.806;9.140;2023-05-29T13:56:45;6.53;;;3.17;;
4636;SDS011;2331;48.806;9.140;2023-05-29T13:59:11;7.23;;;3.73;;
4636;SDS011;2331;48.806;9.140;2023-05-29T14:01:38;4.90;;;3.20;;
4636;SDS011;2331;48.806;9.140;2023-05-29T14:04:06;9.80;;;4.00;;
4636;SDS011;2331;48.806;9.140;2023-05-29T14:06:33;7.57;;;3.43;;
4636;SDS011;2331;48.806;9.140;2023-05-29T14:09:01;6.10;;;3.40;;
4636;SDS011;2331;48.806;9.140;2023-05-29T14:11:28;6.40;;;3.20;;
4636;SDS011;2331;48.806;9.140;2023-05-29T14:13:55;5.60;;;3.10;;
4636;SDS011;2331;48.806;9.140;2023-05-29T14:16:21;6.27;;;3.13;;
4636;SDS011;2331;48.806;9.140;2023-05-29T14:18:48;5.17;;;3.30;;
4636;SDS011;2331;48.806;9.140;2023-05-29T14:21:16;9.67;;;3.70;;
4636;SDS011;2331;48.806;9.140;2023-05-29T14:23:44;8.17;;;3.40;;
4636;SDS011;2331;48.806;9.140;2023-05-29T14:26:11;7.37;;;3.43;;
4636;SDS011;2331;48.806;9.140;2023-05-29T14:28:38;7.33;;;3.17;;
4636;SDS011;2331;48.806;9.140;2023-05-29T14:31:05;8.20;;;3.30;;
4636;SDS011;2331;48.806;9.140;2023-05-29T14:33:32;5.80;;;3.17;;
4636;SDS011;2331;48.806;9.140;2023-05-29T14:35:59;6.80;;;3.50;;
4636;SDS011;2331;48.806;9.140;2023-05-29T14:38:27;6.60;;;3.37;;
4636;SDS011;2331;48.806;9.140;2023-05-29T14:40:54;6.63;;;3.40;;
4636;SDS011;2331;48.806;9.140;2023-05-29T14:43:21;5.90;;;3.20;;
4636;SDS011;2331;48.806;9.140;2023-05-29T14:45:48;8.40;;;3.30;;
4636;SDS011;2331;48.806;9.140;2023-05-29T14:48:14;6.30;;;2.90;;
4636;SDS011;2331;48.806;9.140;2023-05-29T14:50:42;7.83;;;3.73;;
4636;SDS011;2331;48.806;9.140;2023-05-29T14:53:08;5.80;;;3.30;;
4636;SDS011;2331;48.806;9.140;2023-05-29T14:55:40;6.53;;;2.93;;
4636;SDS011;2331;48.806;9.140;2023-05-29T14:58:07;6.23;;;3.33;;
4636;SDS011;2331;48.806;9.140;2023-05-29T15:00:34;5.93;;;3.20;;
4636;SDS011;2331;48.806;9.140;2023-05-29T15:03:01;6.03;;;3.47;;
4636;SDS011;2331;48.806;9.140;2023-05-29T15:05:27;6.60;;;3.10;;
4636;SDS011;2331;48.806;9.140;2023-05-29T15:07:54;5.93;;;3.37;;
4636;SDS011;2331;48.806;9.140;2023-05-29T15:10:22;12.47;;;3.53;;
4636;SDS011;2331;48.806;9.140;2023-05-29T15:12:51;6.27;;;3.33;;
4636;SDS011;2331;48.806;9.140;2023-05-29T15:15:21;8.20;;;3.30;;
4636;SDS011;2331;48.806;9.140;2023-05-29T15:17:49;6.37;;;3.43;;
4636;SDS011;2331;48.806;9.140;2023-05-29T15:20:19;4.90;;;2.63;;
4636;SDS011;2331;48.806;9.140;2023-05-29T15:22:48;7.07;;;3.03;;
4636;SDS011;2331;48.806;9.140;2023-05-29T15:25:23;6.03;;;2.80;;